sensor_id;sensor_type;location;lat;lon;timestamp;P1;durP1;ratioP1;P2;durP2;ratioP2
42168;SDS011;27838;43.858;25.974;2022-11-20T00:01:18;45.38;;;31.95;;
42168;SDS011;27838;43.858;25.974;2022-11-20T00:03:53;44.67;;;30.75;;
42168;SDS011;27838;43.858;25.974;2022-11-20T00:06:21;41.92;;;32.45;;
42168;SDS011;27838;43.858;25.974;2022-11-20T00:08:48;43.45;;;31.08;;
42168;SDS011;27838;43.858;25.974;2022-11-20T00:11:19;42.17;;;31.90;;
42168;SDS011;27838;43.858;25.974;2022-11-20T00:13:47;43.33;;;32.28;;
42168;SDS011;27838;43.858;25.974;2022-11-20T00:16:17;44.67;;;33.92;;
42168;SDS011;27838;43.858;25.974;2022-11-20T00:18:45;47.88;;;32.50;;
42168;SDS011;27838;43.858;25.974;2022-11-20T00:21:19;47.95;;;33.40;;
42168;SDS011;27838;43.858;25.974;2022-11-20T00:23:47;44.17;;;31.27;;
42168;SDS011;27838;43.858;25.974;2022-11-20T00:26:16;43.85;;;33.00;;
42168;SDS011;27838;43.858;25.974;2022-11-20T00:28:44;44.95;;;32.88;;
42168;SDS011;27838;43.858;25.974;2022-11-20T00:31:15;47.95;;;33.33;;
42168;SDS011;27838;43.858;25.974;2022-11-20T00:33:43;46.08;;;32.65;;
42168;SDS011;27838;43.858;25.974;2022-11-20T00:36:11;44.47;;;31.48;;
42168;SDS011;27838;43.858;25.974;2022-11-20T00:38:51;42.78;;;31.38;;
42168;SDS011;27838;43.858;25.974;2022-11-20T00:41:19;41.75;;;30.90;;
42168;SDS011;27838;43.858;25.974;2022-11-20T00:43:46;44.50;;;31.08;;
42168;SDS011;27838;43.858;25.974;2022-11-20T00:46:13;44.47;;;31.10;;
42168;SDS011;27838;43.858;25.974;2022-11-20T00:48:42;44.05;;;30.48;;
42168;SDS011;27838;43.858;25.974;2022-11-20T00:51:09;48.58;;;30.40;;
42168;SDS011;27838;43.858;25.974;2022-11-20T00:53:37;43.33;;;29.52;;
42168;SDS011;27838;43.858;25.974;2022-11-20T00:56:05;43.45;;;31.25;;
42168;SDS011;27838;43.858;25.974;2022-11-20T00:58:35;42.80;;;29.08;;
42168;SDS011;27838;43.858;25.974;2022-11-20T01:01:04;40.33;;;30.05;;
42168;SDS011;27838;43.858;25.974;2022-11-20T01:03:39;49.42;;;31.02;;
42168;SDS011;27838;43.858;25.974;2022-11-20T01:08:47;44.63;;;30.00;;
42168;SDS011;27838;43.858;25.974;2022-11-20T01:11:18;42.03;;;29.50;;
42168;SDS011;27838;43.858;25.974;2022-11-20T01:13:47;49.20;;;28.30;;
42168;SDS011;27838;43.858;25.974;2022-11-20T01:16:18;43.78;;;28.25;;
42168;SDS011;27838;43.858;25.974;2022-11-20T01:18:49;48.38;;;28.58;;
42168;SDS011;27838;43.858;25.974;2022-11-20T01:21:23;46.40;;;29.63;;
42168;SDS011;27838;43.858;25.974;2022-11-20T01:23:51;46.60;;;27.77;;
42168;SDS011;27838;43.858;25.974;2022-11-20T01:26:20;46.45;;;28.20;;
42168;SDS011;27838;43.858;25.974;2022-11-20T01:28:48;49.88;;;28.77;;
42168;SDS011;27838;43.858;25.974;2022-11-20T01:31:16;41.47;;;26.75;;
42168;SDS011;27838;43.858;25.974;2022-11-20T01:33:51;46.42;;;28.25;;
42168;SDS011;27838;43.858;25.974;2022-11-20T01:36:20;46.08;;;26.08;;
42168;SDS011;27838;43.858;25.974;2022-11-20T01:38:48;48.80;;;28.17;;
42168;SDS011;27838;43.858;25.974;2022-11-20T01:41:18;40.30;;;26.73;;
42168;SDS011;27838;43.858;25.974;2022-11-20T01:43:59;52.05;;;28.85;;
42168;SDS011;27838;43.858;25.974;2022-11-20T01:46:26;43.25;;;27.25;;
42168;SDS011;27838;43.858;25.974;2022-11-20T01:48:54;44.67;;;27.55;;
42168;SDS011;27838;43.858;25.974;2022-11-20T01:54:17;45.70;;;26.23;;
42168;SDS011;27838;43.858;25.974;2022-11-20T01:59:17;41.72;;;24.33;;
42168;SDS011;27838;43.858;25.974;2022-11-20T02:01:45;43.53;;;25.10;;
42168;SDS011;27838;43.858;25.974;2022-11-20T02:04:13;42.63;;;23.23;;
42168;SDS011;27838;43.858;25.974;2022-11-20T02:06:42;39.63;;;21.75;;
42168;SDS011;27838;43.858;25.974;2022-11-20T02:09:15;36.47;;;19.13;;
42168;SDS011;27838;43.858;25.974;2022-11-20T02:11:42;31.90;;;18.67;;
42168;SDS011;27838;43.858;25.974;2022-11-20T02:14:08;37.58;;;19.00;;
42168;SDS011;27838;43.858;25.974;2022-11-20T02:16:36;41.20;;;20.30;;
42168;SDS011;27838;43.858;25.974;2022-11-20T02:19:07;37.13;;;19.02;;
42168;SDS011;27838;43.858;25.974;2022-11-20T02:24:28;38.15;;;18.98;;
42168;SDS011;27838;43.858;25.974;2022-11-20T02:27:08;38.75;;;19.80;;
42168;SDS011;27838;43.858;25.974;2022-11-20T02:32:22;38.53;;;21.02;;
42168;SDS011;27838;43.858;25.974;2022-11-20T02:34:53;40.00;;;20.33;;
42168;SDS011;27838;43.858;25.974;2022-11-20T02:37:20;39.58;;;19.58;;
42168;SDS011;27838;43.858;25.974;2022-11-20T02:39:48;38.20;;;19.98;;
42168;SDS011;27838;43.858;25.974;2022-11-20T02:42:17;36.15;;;19.20;;
42168;SDS011;27838;43.858;25.974;2022-11-20T02:44:44;37.92;;;19.63;;
42168;SDS011;27838;43.858;25.974;2022-11-20T02:47:11;37.38;;;19.23;;
42168;SDS011;27838;43.858;25.974;2022-11-20T02:49:37;36.85;;;20.73;;
42168;SDS011;27838;43.858;25.974;2022-11-20T02:52:04;35.75;;;19.15;;
42168;SDS011;27838;43.858;25.974;2022-11-20T02:54:30;39.17;;;22.15;;
42168;SDS011;27838;43.858;25.974;2022-11-20T02:56:57;41.67;;;22.25;;
42168;SDS011;27838;43.858;25.974;2022-11-20T02:59:24;40.08;;;20.67;;
42168;SDS011;27838;43.858;25.974;2022-11-20T03:01:50;42.85;;;20.77;;
42168;SDS011;27838;43.858;25.974;2022-11-20T03:04:17;42.45;;;21.92;;
42168;SDS011;27838;43.858;25.974;2022-11-20T03:06:43;41.15;;;21.50;;
42168;SDS011;27838;43.858;25.974;2022-11-20T03:09:10;35.92;;;20.08;;
42168;SDS011;27838;43.858;25.974;2022-11-20T03:11:36;43.50;;;20.17;;
42168;SDS011;27838;43.858;25.974;2022-11-20T03:14:03;38.38;;;20.65;;
42168;SDS011;27838;43.858;25.974;2022-11-20T03:16:31;40.65;;;22.33;;
42168;SDS011;27838;43.858;25.974;2022-11-20T03:18:58;35.92;;;22.23;;
42168;SDS011;27838;43.858;25.974;2022-11-20T03:21:25;42.55;;;22.17;;
42168;SDS011;27838;43.858;25.974;2022-11-20T03:23:53;39.30;;;22.10;;
42168;SDS011;27838;43.858;25.974;2022-11-20T03:26:21;45.95;;;20.90;;
42168;SDS011;27838;43.858;25.974;2022-11-20T03:28:51;47.33;;;23.50;;
42168;SDS011;27838;43.858;25.974;2022-11-20T03:31:21;44.95;;;23.85;;
42168;SDS011;27838;43.858;25.974;2022-11-20T03:33:53;41.42;;;23.48;;
42168;SDS011;27838;43.858;25.974;2022-11-20T03:36:20;46.72;;;24.40;;
42168;SDS011;27838;43.858;25.974;2022-11-20T03:38:47;38.38;;;23.25;;
42168;SDS011;27838;43.858;25.974;2022-11-20T03:41:15;40.78;;;23.98;;
42168;SDS011;27838;43.858;25.974;2022-11-20T03:43:47;48.95;;;24.98;;
42168;SDS011;27838;43.858;25.974;2022-11-20T03:46:15;48.42;;;23.85;;
42168;SDS011;27838;43.858;25.974;2022-11-20T03:48:41;43.05;;;22.70;;
42168;SDS011;27838;43.858;25.974;2022-11-20T03:51:15;48.70;;;24.48;;
42168;SDS011;27838;43.858;25.974;2022-11-20T03:53:50;51.50;;;26.98;;
42168;SDS011;27838;43.858;25.974;2022-11-20T03:56:18;45.47;;;23.63;;
42168;SDS011;27838;43.858;25.974;2022-11-20T03:58:48;46.35;;;24.63;;
42168;SDS011;27838;43.858;25.974;2022-11-20T04:01:15;47.58;;;24.45;;
42168;SDS011;27838;43.858;25.974;2022-11-20T04:03:44;48.13;;;26.30;;
42168;SDS011;27838;43.858;25.974;2022-11-20T04:06:12;48.30;;;24.88;;
42168;SDS011;27838;43.858;25.974;2022-11-20T04:08:46;43.05;;;24.25;;
42168;SDS011;27838;43.858;25.974;2022-11-20T04:11:24;45.45;;;25.65;;
42168;SDS011;27838;43.858;25.974;2022-11-20T04:13:55;43.27;;;25.63;;
42168;SDS011;27838;43.858;25.974;2022-11-20T04:16:24;41.58;;;25.70;;
42168;SDS011;27838;43.858;25.974;2022-11-20T04:18:53;56.22;;;27.42;;
42168;SDS011;27838;43.858;25.974;2022-11-20T04:21:21;52.97;;;28.73;;
42168;SDS011;27838;43.858;25.974;2022-11-20T04:23:48;51.85;;;29.17;;
42168;SDS011;27838;43.858;25.974;2022-11-20T04:26:17;54.20;;;29.52;;
42168;SDS011;27838;43.858;25.974;2022-11-20T04:28:44;57.88;;;31.42;;
42168;SDS011;27838;43.858;25.974;2022-11-20T04:31:12;50.47;;;28.33;;
42168;SDS011;27838;43.858;25.974;2022-11-20T04:33:43;60.22;;;30.95;;
42168;SDS011;27838;43.858;25.974;2022-11-20T04:36:14;53.72;;;30.02;;
42168;SDS011;27838;43.858;25.974;2022-11-20T04:38:42;61.28;;;30.80;;
42168;SDS011;27838;43.858;25.974;2022-11-20T04:41:12;58.45;;;31.83;;
42168;SDS011;27838;43.858;25.974;2022-11-20T04:43:47;54.72;;;30.40;;
42168;SDS011;27838;43.858;25.974;2022-11-20T04:46:20;51.47;;;28.65;;
42168;SDS011;27838;43.858;25.974;2022-11-20T04:48:47;55.58;;;30.80;;
42168;SDS011;27838;43.858;25.974;2022-11-20T04:51:13;64.88;;;31.33;;
42168;SDS011;27838;43.858;25.974;2022-11-20T04:53:41;61.28;;;29.95;;
42168;SDS011;27838;43.858;25.974;2022-11-20T04:56:08;63.25;;;29.85;;
42168;SDS011;27838;43.858;25.974;2022-11-20T04:58:36;62.22;;;32.03;;
42168;SDS011;27838;43.858;25.974;2022-11-20T05:01:25;54.78;;;29.25;;
42168;SDS011;27838;43.858;25.974;2022-11-20T05:03:50;63.05;;;30.58;;
42168;SDS011;27838;43.858;25.974;2022-11-20T05:06:18;60.15;;;28.65;;
42168;SDS011;27838;43.858;25.974;2022-11-20T05:08:46;71.80;;;32.25;;
42168;SDS011;27838;43.858;25.974;2022-11-20T05:11:17;65.63;;;29.33;;
42168;SDS011;27838;43.858;25.974;2022-11-20T05:13:47;59.67;;;28.58;;
42168;SDS011;27838;43.858;25.974;2022-11-20T05:16:16;68.45;;;30.40;;
42168;SDS011;27838;43.858;25.974;2022-11-20T05:18:52;53.42;;;30.00;;
42168;SDS011;27838;43.858;25.974;2022-11-20T05:21:19;59.92;;;30.38;;
42168;SDS011;27838;43.858;25.974;2022-11-20T05:23:47;58.55;;;29.75;;
42168;SDS011;27838;43.858;25.974;2022-11-20T05:26:15;60.03;;;30.80;;
42168;SDS011;27838;43.858;25.974;2022-11-20T05:28:47;65.30;;;31.92;;
42168;SDS011;27838;43.858;25.974;2022-11-20T05:31:16;72.38;;;29.85;;
42168;SDS011;27838;43.858;25.974;2022-11-20T05:33:44;57.55;;;29.88;;
42168;SDS011;27838;43.858;25.974;2022-11-20T05:36:12;53.85;;;28.23;;
42168;SDS011;27838;43.858;25.974;2022-11-20T05:38:40;49.55;;;26.38;;
42168;SDS011;27838;43.858;25.974;2022-11-20T05:41:08;51.75;;;27.30;;
42168;SDS011;27838;43.858;25.974;2022-11-20T05:43:39;52.25;;;26.70;;
42168;SDS011;27838;43.858;25.974;2022-11-20T05:46:08;50.67;;;26.80;;
42168;SDS011;27838;43.858;25.974;2022-11-20T05:48:36;46.05;;;27.48;;
42168;SDS011;27838;43.858;25.974;2022-11-20T05:51:05;47.05;;;25.88;;
42168;SDS011;27838;43.858;25.974;2022-11-20T05:53:33;50.42;;;25.80;;
42168;SDS011;27838;43.858;25.974;2022-11-20T05:56:02;51.10;;;25.73;;
42168;SDS011;27838;43.858;25.974;2022-11-20T05:58:33;48.97;;;25.48;;
42168;SDS011;27838;43.858;25.974;2022-11-20T06:03:33;46.53;;;23.15;;
42168;SDS011;27838;43.858;25.974;2022-11-20T06:06:00;46.45;;;24.50;;
42168;SDS011;27838;43.858;25.974;2022-11-20T06:08:27;48.63;;;24.55;;
42168;SDS011;27838;43.858;25.974;2022-11-20T06:10:54;42.45;;;21.42;;
42168;SDS011;27838;43.858;25.974;2022-11-20T06:13:21;45.53;;;21.98;;
42168;SDS011;27838;43.858;25.974;2022-11-20T06:15:51;43.00;;;21.75;;
42168;SDS011;27838;43.858;25.974;2022-11-20T06:18:18;43.38;;;22.55;;
42168;SDS011;27838;43.858;25.974;2022-11-20T06:20:45;40.63;;;21.75;;
42168;SDS011;27838;43.858;25.974;2022-11-20T06:23:12;52.17;;;22.58;;
42168;SDS011;27838;43.858;25.974;2022-11-20T06:25:39;41.85;;;22.33;;
42168;SDS011;27838;43.858;25.974;2022-11-20T06:28:07;43.63;;;20.92;;
42168;SDS011;27838;43.858;25.974;2022-11-20T06:30:35;40.42;;;20.67;;
42168;SDS011;27838;43.858;25.974;2022-11-20T06:33:01;48.65;;;22.00;;
42168;SDS011;27838;43.858;25.974;2022-11-20T06:35:28;42.65;;;21.52;;
42168;SDS011;27838;43.858;25.974;2022-11-20T06:37:55;48.40;;;20.95;;
42168;SDS011;27838;43.858;25.974;2022-11-20T06:40:22;42.90;;;19.92;;
42168;SDS011;27838;43.858;25.974;2022-11-20T06:42:48;42.42;;;20.80;;
42168;SDS011;27838;43.858;25.974;2022-11-20T06:45:15;43.15;;;21.15;;
42168;SDS011;27838;43.858;25.974;2022-11-20T06:47:41;45.15;;;20.83;;
42168;SDS011;27838;43.858;25.974;2022-11-20T06:50:08;38.50;;;20.50;;
42168;SDS011;27838;43.858;25.974;2022-11-20T06:52:34;48.63;;;23.98;;
42168;SDS011;27838;43.858;25.974;2022-11-20T06:55:01;42.15;;;19.52;;
42168;SDS011;27838;43.858;25.974;2022-11-20T06:57:28;36.88;;;18.60;;
42168;SDS011;27838;43.858;25.974;2022-11-20T06:59:54;48.30;;;20.70;;
42168;SDS011;27838;43.858;25.974;2022-11-20T07:02:21;42.05;;;18.75;;
42168;SDS011;27838;43.858;25.974;2022-11-20T07:04:47;35.40;;;17.65;;
42168;SDS011;27838;43.858;25.974;2022-11-20T07:07:14;33.60;;;17.63;;
42168;SDS011;27838;43.858;25.974;2022-11-20T07:09:40;35.88;;;17.27;;
42168;SDS011;27838;43.858;25.974;2022-11-20T07:12:07;39.25;;;18.77;;
42168;SDS011;27838;43.858;25.974;2022-11-20T07:14:34;38.17;;;17.65;;
42168;SDS011;27838;43.858;25.974;2022-11-20T07:17:01;34.78;;;17.25;;
42168;SDS011;27838;43.858;25.974;2022-11-20T07:19:27;36.80;;;17.52;;
42168;SDS011;27838;43.858;25.974;2022-11-20T07:21:54;37.10;;;17.27;;
42168;SDS011;27838;43.858;25.974;2022-11-20T07:24:20;35.05;;;16.55;;
42168;SDS011;27838;43.858;25.974;2022-11-20T07:26:47;37.97;;;17.88;;
42168;SDS011;27838;43.858;25.974;2022-11-20T07:29:14;35.05;;;17.30;;
42168;SDS011;27838;43.858;25.974;2022-11-20T07:31:41;40.45;;;17.27;;
42168;SDS011;27838;43.858;25.974;2022-11-20T07:34:08;36.22;;;17.95;;
42168;SDS011;27838;43.858;25.974;2022-11-20T07:36:35;44.45;;;17.83;;
42168;SDS011;27838;43.858;25.974;2022-11-20T07:39:01;41.22;;;17.35;;
42168;SDS011;27838;43.858;25.974;2022-11-20T07:41:28;44.85;;;18.85;;
42168;SDS011;27838;43.858;25.974;2022-11-20T07:43:54;38.15;;;16.92;;
42168;SDS011;27838;43.858;25.974;2022-11-20T07:46:21;36.55;;;17.80;;
42168;SDS011;27838;43.858;25.974;2022-11-20T07:48:47;52.13;;;20.08;;
42168;SDS011;27838;43.858;25.974;2022-11-20T07:51:14;38.78;;;18.75;;
42168;SDS011;27838;43.858;25.974;2022-11-20T07:53:41;44.58;;;19.83;;
42168;SDS011;27838;43.858;25.974;2022-11-20T07:56:07;49.75;;;19.60;;
42168;SDS011;27838;43.858;25.974;2022-11-20T07:58:34;32.30;;;17.27;;
42168;SDS011;27838;43.858;25.974;2022-11-20T08:01:05;43.15;;;19.90;;
42168;SDS011;27838;43.858;25.974;2022-11-20T08:03:33;48.67;;;18.92;;
42168;SDS011;27838;43.858;25.974;2022-11-20T08:06:02;43.55;;;20.77;;
42168;SDS011;27838;43.858;25.974;2022-11-20T08:08:29;42.78;;;20.80;;
42168;SDS011;27838;43.858;25.974;2022-11-20T08:10:56;45.15;;;21.17;;
42168;SDS011;27838;43.858;25.974;2022-11-20T08:13:45;37.83;;;20.50;;
42168;SDS011;27838;43.858;25.974;2022-11-20T08:16:29;46.05;;;19.35;;
42168;SDS011;27838;43.858;25.974;2022-11-20T08:18:55;39.40;;;19.05;;
42168;SDS011;27838;43.858;25.974;2022-11-20T08:21:22;37.78;;;20.52;;
42168;SDS011;27838;43.858;25.974;2022-11-20T08:23:49;47.70;;;23.40;;
42168;SDS011;27838;43.858;25.974;2022-11-20T08:26:15;37.03;;;19.50;;
42168;SDS011;27838;43.858;25.974;2022-11-20T08:28:42;37.45;;;18.15;;
42168;SDS011;27838;43.858;25.974;2022-11-20T08:31:09;41.10;;;22.13;;
42168;SDS011;27838;43.858;25.974;2022-11-20T08:33:35;43.08;;;20.77;;
42168;SDS011;27838;43.858;25.974;2022-11-20T08:36:02;40.95;;;18.58;;
42168;SDS011;27838;43.858;25.974;2022-11-20T08:38:29;47.78;;;20.60;;
42168;SDS011;27838;43.858;25.974;2022-11-20T08:41:00;36.63;;;18.58;;
42168;SDS011;27838;43.858;25.974;2022-11-20T08:43:45;41.35;;;17.83;;
42168;SDS011;27838;43.858;25.974;2022-11-20T08:46:12;45.83;;;23.00;;
42168;SDS011;27838;43.858;25.974;2022-11-20T08:48:39;35.20;;;18.25;;
42168;SDS011;27838;43.858;25.974;2022-11-20T08:51:05;32.78;;;17.52;;
42168;SDS011;27838;43.858;25.974;2022-11-20T08:53:32;30.48;;;17.40;;
42168;SDS011;27838;43.858;25.974;2022-11-20T08:55:58;34.42;;;18.58;;
42168;SDS011;27838;43.858;25.974;2022-11-20T08:58:25;35.00;;;18.50;;
42168;SDS011;27838;43.858;25.974;2022-11-20T09:00:52;31.42;;;17.02;;
42168;SDS011;27838;43.858;25.974;2022-11-20T09:03:18;38.95;;;18.42;;
42168;SDS011;27838;43.858;25.974;2022-11-20T09:05:45;35.28;;;18.30;;
42168;SDS011;27838;43.858;25.974;2022-11-20T09:08:12;55.42;;;21.10;;
42168;SDS011;27838;43.858;25.974;2022-11-20T09:10:38;48.60;;;18.70;;
42168;SDS011;27838;43.858;25.974;2022-11-20T09:13:05;37.40;;;18.83;;
42168;SDS011;27838;43.858;25.974;2022-11-20T09:15:32;31.70;;;17.85;;
42168;SDS011;27838;43.858;25.974;2022-11-20T09:17:59;41.38;;;17.77;;
42168;SDS011;27838;43.858;25.974;2022-11-20T09:20:29;36.70;;;17.90;;
42168;SDS011;27838;43.858;25.974;2022-11-20T09:22:56;32.72;;;18.35;;
42168;SDS011;27838;43.858;25.974;2022-11-20T09:25:23;30.38;;;17.27;;
42168;SDS011;27838;43.858;25.974;2022-11-20T09:27:57;40.15;;;20.58;;
42168;SDS011;27838;43.858;25.974;2022-11-20T09:30:24;32.22;;;18.27;;
42168;SDS011;27838;43.858;25.974;2022-11-20T09:32:50;45.83;;;21.85;;
42168;SDS011;27838;43.858;25.974;2022-11-20T09:35:17;44.80;;;22.40;;
42168;SDS011;27838;43.858;25.974;2022-11-20T09:37:44;42.53;;;24.20;;
42168;SDS011;27838;43.858;25.974;2022-11-20T09:40:17;38.85;;;20.25;;
42168;SDS011;27838;43.858;25.974;2022-11-20T09:43:01;42.00;;;22.02;;
42168;SDS011;27838;43.858;25.974;2022-11-20T09:45:43;33.80;;;19.40;;
42168;SDS011;27838;43.858;25.974;2022-11-20T09:51:24;40.20;;;19.55;;
42168;SDS011;27838;43.858;25.974;2022-11-20T09:57:02;34.42;;;18.77;;
42168;SDS011;27838;43.858;25.974;2022-11-20T09:59:37;37.60;;;20.50;;
42168;SDS011;27838;43.858;25.974;2022-11-20T10:04:44;32.15;;;19.05;;
42168;SDS011;27838;43.858;25.974;2022-11-20T10:07:20;40.25;;;20.08;;
42168;SDS011;27838;43.858;25.974;2022-11-20T10:09:53;41.78;;;19.80;;
42168;SDS011;27838;43.858;25.974;2022-11-20T10:14:57;30.67;;;19.25;;
42168;SDS011;27838;43.858;25.974;2022-11-20T10:20:38;33.55;;;19.48;;
42168;SDS011;27838;43.858;25.974;2022-11-20T10:31:25;39.72;;;20.98;;
42168;SDS011;27838;43.858;25.974;2022-11-20T10:33:58;40.08;;;22.15;;
42168;SDS011;27838;43.858;25.974;2022-11-20T10:36:33;33.45;;;21.38;;
42168;SDS011;27838;43.858;25.974;2022-11-20T10:39:05;34.17;;;21.40;;
42168;SDS011;27838;43.858;25.974;2022-11-20T10:41:50;39.00;;;21.95;;
42168;SDS011;27838;43.858;25.974;2022-11-20T10:44:24;37.97;;;21.85;;
42168;SDS011;27838;43.858;25.974;2022-11-20T10:47:12;35.35;;;20.80;;
42168;SDS011;27838;43.858;25.974;2022-11-20T10:49:42;37.00;;;20.70;;
42168;SDS011;27838;43.858;25.974;2022-11-20T10:55:12;51.33;;;29.98;;
42168;SDS011;27838;43.858;25.974;2022-11-20T10:58:12;42.38;;;24.88;;
42168;SDS011;27838;43.858;25.974;2022-11-20T11:00:45;38.90;;;22.58;;
42168;SDS011;27838;43.858;25.974;2022-11-20T11:03:25;40.92;;;23.33;;
42168;SDS011;27838;43.858;25.974;2022-11-20T11:05:57;53.85;;;29.02;;
42168;SDS011;27838;43.858;25.974;2022-11-20T11:11:10;49.30;;;27.58;;
42168;SDS011;27838;43.858;25.974;2022-11-20T11:14:09;44.15;;;24.48;;
42168;SDS011;27838;43.858;25.974;2022-11-20T11:16:50;48.60;;;24.88;;
42168;SDS011;27838;43.858;25.974;2022-11-20T11:19:18;51.70;;;25.10;;
42168;SDS011;27838;43.858;25.974;2022-11-20T11:21:54;52.90;;;25.17;;
42168;SDS011;27838;43.858;25.974;2022-11-20T11:24:23;47.47;;;25.58;;
42168;SDS011;27838;43.858;25.974;2022-11-20T11:27:04;46.03;;;25.67;;
42168;SDS011;27838;43.858;25.974;2022-11-20T11:29:38;49.08;;;26.00;;
42168;SDS011;27838;43.858;25.974;2022-11-20T11:32:11;45.92;;;25.83;;
42168;SDS011;27838;43.858;25.974;2022-11-20T11:34:39;45.10;;;25.13;;
42168;SDS011;27838;43.858;25.974;2022-11-20T11:37:10;50.72;;;28.05;;
42168;SDS011;27838;43.858;25.974;2022-11-20T11:39:43;63.22;;;32.20;;
42168;SDS011;27838;43.858;25.974;2022-11-20T11:42:17;58.70;;;31.10;;
42168;SDS011;27838;43.858;25.974;2022-11-20T11:44:45;49.30;;;26.73;;
42168;SDS011;27838;43.858;25.974;2022-11-20T11:55:12;47.58;;;25.75;;
42168;SDS011;27838;43.858;25.974;2022-11-20T11:57:50;45.10;;;25.98;;
42168;SDS011;27838;43.858;25.974;2022-11-20T12:00:21;49.60;;;26.55;;
42168;SDS011;27838;43.858;25.974;2022-11-20T12:02:53;44.90;;;24.50;;
42168;SDS011;27838;43.858;25.974;2022-11-20T12:05:31;51.85;;;27.48;;
42168;SDS011;27838;43.858;25.974;2022-11-20T12:16:02;49.60;;;27.05;;
42168;SDS011;27838;43.858;25.974;2022-11-20T12:18:30;51.30;;;28.53;;
42168;SDS011;27838;43.858;25.974;2022-11-20T12:21:02;56.50;;;28.45;;
42168;SDS011;27838;43.858;25.974;2022-11-20T12:26:32;53.80;;;27.20;;
42168;SDS011;27838;43.858;25.974;2022-11-20T12:29:32;49.53;;;27.38;;
42168;SDS011;27838;43.858;25.974;2022-11-20T12:32:36;48.88;;;27.38;;
42168;SDS011;27838;43.858;25.974;2022-11-20T12:35:29;52.75;;;27.25;;
42168;SDS011;27838;43.858;25.974;2022-11-20T12:47:08;52.83;;;25.58;;
42168;SDS011;27838;43.858;25.974;2022-11-20T12:50:07;42.22;;;25.67;;
42168;SDS011;27838;43.858;25.974;2022-11-20T12:55:42;39.13;;;24.63;;
42168;SDS011;27838;43.858;25.974;2022-11-20T12:58:24;46.13;;;25.33;;
42168;SDS011;27838;43.858;25.974;2022-11-20T13:04:05;44.47;;;26.23;;
42168;SDS011;27838;43.858;25.974;2022-11-20T13:06:39;47.92;;;28.65;;
42168;SDS011;27838;43.858;25.974;2022-11-20T13:09:11;41.83;;;26.05;;
42168;SDS011;27838;43.858;25.974;2022-11-20T13:11:43;45.88;;;27.48;;
42168;SDS011;27838;43.858;25.974;2022-11-20T13:17:19;53.42;;;32.22;;
42168;SDS011;27838;43.858;25.974;2022-11-20T13:20:01;43.95;;;27.90;;
42168;SDS011;27838;43.858;25.974;2022-11-20T13:22:43;46.00;;;25.88;;
42168;SDS011;27838;43.858;25.974;2022-11-20T13:25:25;40.75;;;25.00;;
42168;SDS011;27838;43.858;25.974;2022-11-20T13:30:48;40.15;;;26.38;;
42168;SDS011;27838;43.858;25.974;2022-11-20T13:33:23;60.05;;;34.60;;
42168;SDS011;27838;43.858;25.974;2022-11-20T13:36:05;56.42;;;35.83;;
42168;SDS011;27838;43.858;25.974;2022-11-20T13:41:31;48.45;;;26.08;;
42168;SDS011;27838;43.858;25.974;2022-11-20T13:46:42;51.00;;;28.02;;
42168;SDS011;27838;43.858;25.974;2022-11-20T13:49:14;38.22;;;23.92;;
42168;SDS011;27838;43.858;25.974;2022-11-20T14:02:20;37.13;;;22.30;;
42168;SDS011;27838;43.858;25.974;2022-11-20T14:04:49;41.22;;;22.50;;
42168;SDS011;27838;43.858;25.974;2022-11-20T14:07:18;42.05;;;25.58;;
42168;SDS011;27838;43.858;25.974;2022-11-20T14:09:49;45.45;;;26.75;;
42168;SDS011;27838;43.858;25.974;2022-11-20T14:12:32;41.47;;;24.35;;
42168;SDS011;27838;43.858;25.974;2022-11-20T14:15:01;40.30;;;24.42;;
42168;SDS011;27838;43.858;25.974;2022-11-20T14:19:55;43.15;;;24.77;;
42168;SDS011;27838;43.858;25.974;2022-11-20T14:22:27;38.67;;;25.27;;
42168;SDS011;27838;43.858;25.974;2022-11-20T14:27:44;45.47;;;28.08;;
42168;SDS011;27838;43.858;25.974;2022-11-20T14:30:17;36.88;;;23.83;;
42168;SDS011;27838;43.858;25.974;2022-11-20T14:32:46;35.25;;;23.27;;
42168;SDS011;27838;43.858;25.974;2022-11-20T14:35:21;40.20;;;26.05;;
42168;SDS011;27838;43.858;25.974;2022-11-20T14:37:51;37.95;;;24.35;;
42168;SDS011;27838;43.858;25.974;2022-11-20T14:40:31;38.25;;;23.10;;
42168;SDS011;27838;43.858;25.974;2022-11-20T14:43:02;37.63;;;22.25;;
42168;SDS011;27838;43.858;25.974;2022-11-20T14:46:07;35.28;;;21.23;;
42168;SDS011;27838;43.858;25.974;2022-11-20T14:48:40;39.35;;;23.05;;
42168;SDS011;27838;43.858;25.974;2022-11-20T14:51:11;37.88;;;22.60;;
42168;SDS011;27838;43.858;25.974;2022-11-20T14:53:49;37.58;;;21.67;;
42168;SDS011;27838;43.858;25.974;2022-11-20T14:56:21;35.63;;;22.77;;
42168;SDS011;27838;43.858;25.974;2022-11-20T14:58:58;32.35;;;20.23;;
42168;SDS011;27838;43.858;25.974;2022-11-20T15:01:26;32.22;;;21.33;;
42168;SDS011;27838;43.858;25.974;2022-11-20T15:04:01;31.27;;;20.92;;
42168;SDS011;27838;43.858;25.974;2022-11-20T15:06:32;33.35;;;20.83;;
42168;SDS011;27838;43.858;25.974;2022-11-20T15:08:59;31.40;;;20.77;;
42168;SDS011;27838;43.858;25.974;2022-11-20T15:11:27;32.33;;;20.50;;
42168;SDS011;27838;43.858;25.974;2022-11-20T15:14:03;31.98;;;19.33;;
42168;SDS011;27838;43.858;25.974;2022-11-20T15:16:32;36.05;;;22.73;;
42168;SDS011;27838;43.858;25.974;2022-11-20T15:18:59;29.08;;;19.38;;
42168;SDS011;27838;43.858;25.974;2022-11-20T15:21:27;28.73;;;18.77;;
42168;SDS011;27838;43.858;25.974;2022-11-20T15:23:54;26.60;;;18.88;;
42168;SDS011;27838;43.858;25.974;2022-11-20T15:26:23;26.05;;;17.88;;
42168;SDS011;27838;43.858;25.974;2022-11-20T15:28:51;31.77;;;19.52;;
42168;SDS011;27838;43.858;25.974;2022-11-20T15:31:19;46.92;;;32.70;;
42168;SDS011;27838;43.858;25.974;2022-11-20T15:33:50;27.65;;;19.65;;
42168;SDS011;27838;43.858;25.974;2022-11-20T15:36:16;26.30;;;19.10;;
42168;SDS011;27838;43.858;25.974;2022-11-20T15:38:43;24.20;;;17.02;;
42168;SDS011;27838;43.858;25.974;2022-11-20T15:41:09;26.98;;;18.05;;
42168;SDS011;27838;43.858;25.974;2022-11-20T15:43:36;27.70;;;19.25;;
42168;SDS011;27838;43.858;25.974;2022-11-20T15:46:04;25.67;;;18.10;;
42168;SDS011;27838;43.858;25.974;2022-11-20T15:48:41;39.10;;;24.65;;
42168;SDS011;27838;43.858;25.974;2022-11-20T15:53:37;31.98;;;21.30;;
42168;SDS011;27838;43.858;25.974;2022-11-20T15:56:05;32.10;;;19.77;;
42168;SDS011;27838;43.858;25.974;2022-11-20T15:58:32;29.00;;;19.73;;
42168;SDS011;27838;43.858;25.974;2022-11-20T16:00:59;28.58;;;20.00;;
42168;SDS011;27838;43.858;25.974;2022-11-20T16:03:25;30.45;;;20.17;;
42168;SDS011;27838;43.858;25.974;2022-11-20T16:05:52;29.98;;;20.10;;
42168;SDS011;27838;43.858;25.974;2022-11-20T16:08:18;32.15;;;21.17;;
42168;SDS011;27838;43.858;25.974;2022-11-20T16:10:45;37.08;;;21.77;;
42168;SDS011;27838;43.858;25.974;2022-11-20T16:13:15;33.05;;;20.50;;
42168;SDS011;27838;43.858;25.974;2022-11-20T16:16:02;28.50;;;19.15;;